sensor_id;sensor_type;location;lat;lon;timestamp;P1;P2;P0
65803;PMS5003;65658;63.740;34.316;2023-06-26T00:06:27;10;10;
65803;PMS5003;65658;63.740;34.316;2023-06-26T00:10:13;9;10;
65803;PMS5003;65658;63.740;34.316;2023-06-26T00:14:00;15;16;
65803;PMS5003;65658;63.740;34.316;2023-06-26T00:25:29;13;13;
65803;PMS5003;65658;63.740;34.316;2023-06-26T00:29:16;10;11;
65803;PMS5003;65658;63.740;34.316;2023-06-26T00:33:02;14;14;
65803;PMS5003;65658;63.740;34.316;2023-06-26T00:40:40;14;14;
65803;PMS5003;65658;63.740;34.316;2023-06-26T00:44:27;16;18;
65803;PMS5003;65658;63.740;34.316;2023-06-26T00:52:05;20;20;
65803;PMS5003;65658;63.740;34.316;2023-06-26T00:55:53;24;24;
65803;PMS5003;65658;63.740;34.316;2023-06-26T00:59:40;28;28;
65803;PMS5003;65658;63.740;34.316;2023-06-26T01:07:20;33;35;
65803;PMS5003;65658;63.740;34.316;2023-06-26T01:11:34;38;44;
65803;PMS5003;65658;63.740;34.316;2023-06-26T01:15:24;36;40;
65803;PMS5003;65658;63.740;34.316;2023-06-26T01:19:13;36;41;
65803;PMS5003;65658;63.740;34.316;2023-06-26T01:26:56;33;37;
65803;PMS5003;65658;63.740;34.316;2023-06-26T01:30:43;32;34;
65803;PMS5003;65658;63.740;34.316;2023-06-26T01:34:31;33;35;
65803;PMS5003;65658;63.740;34.316;2023-06-26T01:38:20;35;38;
65803;PMS5003;65658;63.740;34.316;2023-06-26T01:42:20;36;41;
65803;PMS5003;65658;63.740;34.316;2023-06-26T01:50:27;42;49;
65803;PMS5003;65658;63.740;34.316;2023-06-26T01:54:18;47;57;
65803;PMS5003;65658;63.740;34.316;2023-06-26T01:58:09;47;57;
65803;PMS5003;65658;63.740;34.316;2023-06-26T02:02:11;44;53;
65803;PMS5003;65658;63.740;34.316;2023-06-26T02:10:14;33;37;
65803;PMS5003;65658;63.740;34.316;2023-06-26T02:14:02;31;32;
65803;PMS5003;65658;63.740;34.316;2023-06-26T02:17:50;30;31;
65803;PMS5003;65658;63.740;34.316;2023-06-26T02:21:39;32;33;
65803;PMS5003;65658;63.740;34.316;2023-06-26T02:25:26;30;31;
65803;PMS5003;65658;63.740;34.316;2023-06-26T02:29:13;31;32;
65803;PMS5003;65658;63.740;34.316;2023-06-26T02:33:10;25;26;
65803;PMS5003;65658;63.740;34.316;2023-06-26T02:36:57;24;24;
65803;PMS5003;65658;63.740;34.316;2023-06-26T02:40:44;25;25;
65803;PMS5003;65658;63.740;34.316;2023-06-26T02:48:25;27;27;
65803;PMS5003;65658;63.740;34.316;2023-06-26T02:56:05;26;26;
65803;PMS5003;65658;63.740;34.316;2023-06-26T02:59:51;16;16;
65803;PMS5003;65658;63.740;34.316;2023-06-26T03:03:38;17;18;
65803;PMS5003;65658;63.740;34.316;2023-06-26T03:07:26;12;12;
65803;PMS5003;65658;63.740;34.316;2023-06-26T03:11:12;15;15;
65803;PMS5003;65658;63.740;34.316;2023-06-26T03:14:59;12;12;
65803;PMS5003;65658;63.740;34.316;2023-06-26T03:18:45;11;11;
65803;PMS5003;65658;63.740;34.316;2023-06-26T03:22:31;7;8;
65803;PMS5003;65658;63.740;34.316;2023-06-26T03:26:18;8;8;
65803;PMS5003;65658;63.740;34.316;2023-06-26T03:30:05;12;14;
65803;PMS5003;65658;63.740;34.316;2023-06-26T03:33:51;10;10;
65803;PMS5003;65658;63.740;34.316;2023-06-26T03:45:20;10;10;
65803;PMS5003;65658;63.740;34.316;2023-06-26T03:49:06;9;9;
65803;PMS5003;65658;63.740;34.316;2023-06-26T03:52:52;8;8;
65803;PMS5003;65658;63.740;34.316;2023-06-26T03:56:39;11;11;
65803;PMS5003;65658;63.740;34.316;2023-06-26T04:00:26;8;8;
65803;PMS5003;65658;63.740;34.316;2023-06-26T04:04:12;9;9;
65803;PMS5003;65658;63.740;34.316;2023-06-26T04:11:49;9;9;
65803;PMS5003;65658;63.740;34.316;2023-06-26T04:19:26;8;8;
65803;PMS5003;65658;63.740;34.316;2023-06-26T04:23:13;8;8;
65803;PMS5003;65658;63.740;34.316;2023-06-26T04:26:59;5;5;
65803;PMS5003;65658;63.740;34.316;2023-06-26T04:30:45;8;8;
65803;PMS5003;65658;63.740;34.316;2023-06-26T04:34:32;8;8;
65803;PMS5003;65658;63.740;34.316;2023-06-26T04:38:19;8;8;
65803;PMS5003;65658;63.740;34.316;2023-06-26T04:42:05;10;10;
65803;PMS5003;65658;63.740;34.316;2023-06-26T04:45:51;9;9;
65803;PMS5003;65658;63.740;34.316;2023-06-26T04:49:37;8;8;
65803;PMS5003;65658;63.740;34.316;2023-06-26T04:53:23;10;10;
65803;PMS5003;65658;63.740;34.316;2023-06-26T04:57:09;8;8;
65803;PMS5003;65658;63.740;34.316;2023-06-26T05:00:56;9;9;
65803;PMS5003;65658;63.740;34.316;2023-06-26T05:04:43;8;9;
65803;PMS5003;65658;63.740;34.316;2023-06-26T05:12:21;12;12;
65803;PMS5003;65658;63.740;34.316;2023-06-26T05:16:08;11;12;
65803;PMS5003;65658;63.740;34.316;2023-06-26T05:27:36;9;10;
65803;PMS5003;65658;63.740;34.316;2023-06-26T05:31:25;41;48;
65803;PMS5003;65658;63.740;34.316;2023-06-26T05:35:11;11;12;
65803;PMS5003;65658;63.740;34.316;2023-06-26T05:42:57;7;7;
65803;PMS5003;65658;63.740;34.316;2023-06-26T05:46:45;9;9;
65803;PMS5003;65658;63.740;34.316;2023-06-26T05:50:31;10;11;
65803;PMS5003;65658;63.740;34.316;2023-06-26T05:58:19;10;10;
65803;PMS5003;65658;63.740;34.316;2023-06-26T06:06:07;9;9;
65803;PMS5003;65658;63.740;34.316;2023-06-26T06:09:53;8;8;
65803;PMS5003;65658;63.740;34.316;2023-06-26T06:17:31;8;8;
65803;PMS5003;65658;63.740;34.316;2023-06-26T06:21:18;12;12;
65803;PMS5003;65658;63.740;34.316;2023-06-26T06:25:15;9;9;
65803;PMS5003;65658;63.740;34.316;2023-06-26T06:29:01;9;9;
65803;PMS5003;65658;63.740;34.316;2023-06-26T06:32:48;8;9;
65803;PMS5003;65658;63.740;34.316;2023-06-26T06:44:16;8;8;
65803;PMS5003;65658;63.740;34.316;2023-06-26T06:48:02;7;7;
65803;PMS5003;65658;63.740;34.316;2023-06-26T06:51:48;8;8;
65803;PMS5003;65658;63.740;34.316;2023-06-26T07:07:08;9;9;
65803;PMS5003;65658;63.740;34.316;2023-06-26T07:10:55;7;7;
65803;PMS5003;65658;63.740;34.316;2023-06-26T07:14:41;7;7;
65803;PMS5003;65658;63.740;34.316;2023-06-26T07:18:27;10;10;
65803;PMS5003;65658;63.740;34.316;2023-06-26T07:22:13;10;11;
65803;PMS5003;65658;63.740;34.316;2023-06-26T07:25:59;9;9;
65803;PMS5003;65658;63.740;34.316;2023-06-26T07:29:47;12;13;
65803;PMS5003;65658;63.740;34.316;2023-06-26T07:33:34;13;14;
65803;PMS5003;65658;63.740;34.316;2023-06-26T07:37:21;7;7;
65803;PMS5003;65658;63.740;34.316;2023-06-26T07:41:07;8;8;
65803;PMS5003;65658;63.740;34.316;2023-06-26T07:44:53;9;10;
65803;PMS5003;65658;63.740;34.316;2023-06-26T07:48:40;11;11;
65803;PMS5003;65658;63.740;34.316;2023-06-26T07:52:26;12;12;
65803;PMS5003;65658;63.740;34.316;2023-06-26T07:56:12;12;12;
65803;PMS5003;65658;63.740;34.316;2023-06-26T08:03:49;13;14;
65803;PMS5003;65658;63.740;34.316;2023-06-26T08:11:26;13;13;
65803;PMS5003;65658;63.740;34.316;2023-06-26T08:15:12;11;11;
65803;PMS5003;65658;63.740;34.316;2023-06-26T08:22:49;11;11;
65803;PMS5003;65658;63.740;34.316;2023-06-26T08:26:35;9;10;
65803;PMS5003;65658;63.740;34.316;2023-06-26T08:30:22;9;10;
65803;PMS5003;65658;63.740;34.316;2023-06-26T08:34:08;12;13;
65803;PMS5003;65658;63.740;34.316;2023-06-26T08:37:55;14;14;
65803;PMS5003;65658;63.740;34.316;2023-06-26T08:41:42;16;16;
65803;PMS5003;65658;63.740;34.316;2023-06-26T08:45:42;18;20;
65803;PMS5003;65658;63.740;34.316;2023-06-26T08:57:09;9;10;
65803;PMS5003;65658;63.740;34.316;2023-06-26T09:01:07;11;11;
65803;PMS5003;65658;63.740;34.316;2023-06-26T09:04:53;8;8;
65803;PMS5003;65658;63.740;34.316;2023-06-26T09:08:39;7;7;
65803;PMS5003;65658;63.740;34.316;2023-06-26T09:12:27;8;9;
65803;PMS5003;65658;63.740;34.316;2023-06-26T09:16:13;8;10;
65803;PMS5003;65658;63.740;34.316;2023-06-26T09:19:59;9;10;
65803;PMS5003;65658;63.740;34.316;2023-06-26T09:23:57;9;9;
65803;PMS5003;65658;63.740;34.316;2023-06-26T09:27:44;19;21;
65803;PMS5003;65658;63.740;34.316;2023-06-26T09:31:32;7;8;
65803;PMS5003;65658;63.740;34.316;2023-06-26T09:35:18;9;9;
65803;PMS5003;65658;63.740;34.316;2023-06-26T09:39:05;8;8;
65803;PMS5003;65658;63.740;34.316;2023-06-26T09:42:51;8;8;
65803;PMS5003;65658;63.740;34.316;2023-06-26T09:46:38;8;8;
65803;PMS5003;65658;63.740;34.316;2023-06-26T09:50:24;7;7;
65803;PMS5003;65658;63.740;34.316;2023-06-26T09:54:22;6;6;
65803;PMS5003;65658;63.740;34.316;2023-06-26T10:02:11;9;9;
65803;PMS5003;65658;63.740;34.316;2023-06-26T10:05:56;8;10;
65803;PMS5003;65658;63.740;34.316;2023-06-26T10:09:43;8;8;
65803;PMS5003;65658;63.740;34.316;2023-06-26T10:13:31;7;8;
65803;PMS5003;65658;63.740;34.316;2023-06-26T10:17:19;6;6;
65803;PMS5003;65658;63.740;34.316;2023-06-26T10:21:16;7;7;
65803;PMS5003;65658;63.740;34.316;2023-06-26T10:25:02;4;4;
65803;PMS5003;65658;63.740;34.316;2023-06-26T10:29:02;8;8;
65803;PMS5003;65658;63.740;34.316;2023-06-26T10:44:40;7;7;
65803;PMS5003;65658;63.740;34.316;2023-06-26T10:48:23;7;7;
65803;PMS5003;65658;63.740;34.316;2023-06-26T10:52:14;7;7;
65803;PMS5003;65658;63.740;34.316;2023-06-26T10:56:03;7;8;
65803;PMS5003;65658;63.740;34.316;2023-06-26T10:59:52;7;7;
65803;PMS5003;65658;63.740;34.316;2023-06-26T11:03:44;6;6;
65803;PMS5003;65658;63.740;34.316;2023-06-26T11:11:21;6;7;
65803;PMS5003;65658;63.740;34.316;2023-06-26T11:15:11;7;7;
65803;PMS5003;65658;63.740;34.316;2023-06-26T11:18:58;6;6;
65803;PMS5003;65658;63.740;34.316;2023-06-26T11:22:43;6;6;
65803;PMS5003;65658;63.740;34.316;2023-06-26T11:26:30;7;7;
65803;PMS5003;65658;63.740;34.316;2023-06-26T11:34:08;7;7;
65803;PMS5003;65658;63.740;34.316;2023-06-26T11:41:44;6;6;
65803;PMS5003;65658;63.740;34.316;2023-06-26T11:45:31;5;5;
65803;PMS5003;65658;63.740;34.316;2023-06-26T11:49:17;8;8;
65803;PMS5003;65658;63.740;34.316;2023-06-26T11:53:03;9;9;
65803;PMS5003;65658;63.740;34.316;2023-06-26T11:56:53;8;9;
65803;PMS5003;65658;63.740;34.316;2023-06-26T12:04:30;8;9;
65803;PMS5003;65658;63.740;34.316;2023-06-26T12:12:08;10;10;
65803;PMS5003;65658;63.740;34.316;2023-06-26T12:15:54;8;9;
65803;PMS5003;65658;63.740;34.316;2023-06-26T12:19:51;7;7;
65803;PMS5003;65658;63.740;34.316;2023-06-26T12:23:48;10;11;
65803;PMS5003;65658;63.740;34.316;2023-06-26T12:27:35;10;10;
65803;PMS5003;65658;63.740;34.316;2023-06-26T12:31:23;9;9;
65803;PMS5003;65658;63.740;34.316;2023-06-26T12:35:09;8;8;
65803;PMS5003;65658;63.740;34.316;2023-06-26T12:38:55;9;9;
65803;PMS5003;65658;63.740;34.316;2023-06-26T12:42:41;10;10;
65803;PMS5003;65658;63.740;34.316;2023-06-26T12:50:19;8;9;
65803;PMS5003;65658;63.740;34.316;2023-06-26T12:54:06;8;8;
65803;PMS5003;65658;63.740;34.316;2023-06-26T12:58:03;9;9;
65803;PMS5003;65658;63.740;34.316;2023-06-26T13:01:49;7;8;
65803;PMS5003;65658;63.740;34.316;2023-06-26T13:05:36;8;8;
65803;PMS5003;65658;63.740;34.316;2023-06-26T13:09:33;10;12;
65803;PMS5003;65658;63.740;34.316;2023-06-26T13:13:19;7;7;
65803;PMS5003;65658;63.740;34.316;2023-06-26T13:21:21;9;9;
65803;PMS5003;65658;63.740;34.316;2023-06-26T13:25:08;9;9;
65803;PMS5003;65658;63.740;34.316;2023-06-26T13:28:54;8;9;
65803;PMS5003;65658;63.740;34.316;2023-06-26T13:32:40;8;8;
65803;PMS5003;65658;63.740;34.316;2023-06-26T13:36:26;6;6;
65803;PMS5003;65658;63.740;34.316;2023-06-26T13:40:22;8;8;
65803;PMS5003;65658;63.740;34.316;2023-06-26T13:44:15;7;7;
65803;PMS5003;65658;63.740;34.316;2023-06-26T13:48:12;7;7;
65803;PMS5003;65658;63.740;34.316;2023-06-26T13:55:49;7;8;
65803;PMS5003;65658;63.740;34.316;2023-06-26T13:59:37;9;11;
65803;PMS5003;65658;63.740;34.316;2023-06-26T14:03:23;10;10;
65803;PMS5003;65658;63.740;34.316;2023-06-26T14:07:09;10;10;
65803;PMS5003;65658;63.740;34.316;2023-06-26T14:10:55;10;10;
65803;PMS5003;65658;63.740;34.316;2023-06-26T14:14:42;12;12;
65803;PMS5003;65658;63.740;34.316;2023-06-26T14:18:28;13;14;
65803;PMS5003;65658;63.740;34.316;2023-06-26T14:22:14;10;10;
65803;PMS5003;65658;63.740;34.316;2023-06-26T14:30:03;11;13;
65803;PMS5003;65658;63.740;34.316;2023-06-26T14:33:49;10;10;
65803;PMS5003;65658;63.740;34.316;2023-06-26T14:37:36;13;13;
65803;PMS5003;65658;63.740;34.316;2023-06-26T14:41:35;18;19;
65803;PMS5003;65658;63.740;34.316;2023-06-26T14:49:12;10;10;
65803;PMS5003;65658;63.740;34.316;2023-06-26T14:52:58;10;10;
65803;PMS5003;65658;63.740;34.316;2023-06-26T15:04:26;12;12;
65803;PMS5003;65658;63.740;34.316;2023-06-26T15:15:54;11;11;
65803;PMS5003;65658;63.740;34.316;2023-06-26T15:23:31;10;10;
65803;PMS5003;65658;63.740;34.316;2023-06-26T15:31:09;14;15;
65803;PMS5003;65658;63.740;34.316;2023-06-26T15:34:55;15;15;
65803;PMS5003;65658;63.740;34.316;2023-06-26T15:38:53;11;11;
65803;PMS5003;65658;63.740;34.316;2023-06-26T15:42:51;11;12;
65803;PMS5003;65658;63.740;34.316;2023-06-26T15:46:37;12;12;
65803;PMS5003;65658;63.740;34.316;2023-06-26T15:54:14;11;12;
65803;PMS5003;65658;63.740;34.316;2023-06-26T15:58:00;10;10;
65803;PMS5003;65658;63.740;34.316;2023-06-26T16:01:47;13;14;
65803;PMS5003;65658;63.740;34.316;2023-06-26T16:05:33;14;15;
65803;PMS5003;65658;63.740;34.316;2023-06-26T16:09:19;10;10;
65803;PMS5003;65658;63.740;34.316;2023-06-26T16:16:56;10;10;
65803;PMS5003;65658;63.740;34.316;2023-06-26T16:24:33;11;11;
65803;PMS5003;65658;63.740;34.316;2023-06-26T16:28:20;12;12;
65803;PMS5003;65658;63.740;34.316;2023-06-26T16:32:07;13;13;
65803;PMS5003;65658;63.740;34.316;2023-06-26T16:35:53;13;14;
65803;PMS5003;65658;63.740;34.316;2023-06-26T16:39:39;12;12;
65803;PMS5003;65658;63.740;34.316;2023-06-26T16:43:25;14;14;
65803;PMS5003;65658;63.740;34.316;2023-06-26T16:47:12;11;12;
65803;PMS5003;65658;63.740;34.316;2023-06-26T16:50:59;33;36;
65803;PMS5003;65658;63.740;34.316;2023-06-26T17:06:41;60;71;
65803;PMS5003;65658;63.740;34.316;2023-06-26T17:10:46;51;62;
65803;PMS5003;65658;63.740;34.316;2023-06-26T17:14:37;45;57;
65803;PMS5003;65658;63.740;34.316;2023-06-26T17:18:50;48;57;
65803;PMS5003;65658;63.740;34.316;2023-06-26T17:22:54;39;46;
65803;PMS5003;65658;63.740;34.316;2023-06-26T17:27:07;43;52;
65803;PMS5003;65658;63.740;34.316;2023-06-26T17:30:49;46;56;
65803;PMS5003;65658;63.740;34.316;2023-06-26T17:34:53;76;81;
65803;PMS5003;65658;63.740;34.316;2023-06-26T17:38:47;73;77;
65803;PMS5003;65658;63.740;34.316;2023-06-26T17:42:36;56;69;
65803;PMS5003;65658;63.740;34.316;2023-06-26T17:47:03;55;69;
65803;PMS5003;65658;63.740;34.316;2023-06-26T17:51:04;51;62;
65803;PMS5003;65658;63.740;34.316;2023-06-26T17:55:30;41;49;
65803;PMS5003;65658;63.740;34.316;2023-06-26T17:59:19;41;49;
65803;PMS5003;65658;63.740;34.316;2023-06-26T18:03:19;36;41;
65803;PMS5003;65658;63.740;34.316;2023-06-26T18:07:20;45;55;
65803;PMS5003;65658;63.740;34.316;2023-06-26T18:11:12;41;49;
65803;PMS5003;65658;63.740;34.316;2023-06-26T18:15:13;47;57;
65803;PMS5003;65658;63.740;34.316;2023-06-26T18:19:15;54;69;
65803;PMS5003;65658;63.740;34.316;2023-06-26T18:23:31;50;62;
65803;PMS5003;65658;63.740;34.316;2023-06-26T18:27:45;71;77;
65803;PMS5003;65658;63.740;34.316;2023-06-26T18:31:39;51;64;
65803;PMS5003;65658;63.740;34.316;2023-06-26T18:35:56;51;62;
65803;PMS5003;65658;63.740;34.316;2023-06-26T18:40:01;45;56;
65803;PMS5003;65658;63.740;34.316;2023-06-26T18:43:50;18;18;
65803;PMS5003;65658;63.740;34.316;2023-06-26T18:55:30;16;16;
65803;PMS5003;65658;63.740;34.316;2023-06-26T18:59:18;24;24;
65803;PMS5003;65658;63.740;34.316;2023-06-26T19:03:06;13;15;
65803;PMS5003;65658;63.740;34.316;2023-06-26T19:06:55;13;13;
65803;PMS5003;65658;63.740;34.316;2023-06-26T19:10:41;13;13;
65803;PMS5003;65658;63.740;34.316;2023-06-26T19:14:27;14;14;
65803;PMS5003;65658;63.740;34.316;2023-06-26T19:18:14;13;13;
65803;PMS5003;65658;63.740;34.316;2023-06-26T19:22:00;15;15;
65803;PMS5003;65658;63.740;34.316;2023-06-26T19:25:47;16;17;
65803;PMS5003;65658;63.740;34.316;2023-06-26T19:29:33;15;16;
65803;PMS5003;65658;63.740;34.316;2023-06-26T19:33:19;17;17;
65803;PMS5003;65658;63.740;34.316;2023-06-26T19:37:06;14;14;
65803;PMS5003;65658;63.740;34.316;2023-06-26T19:40:53;14;14;
65803;PMS5003;65658;63.740;34.316;2023-06-26T19:44:40;13;13;
65803;PMS5003;65658;63.740;34.316;2023-06-26T19:52:17;17;17;
65803;PMS5003;65658;63.740;34.316;2023-06-26T19:56:04;18;20;
65803;PMS5003;65658;63.740;34.316;2023-06-26T20:03:43;18;19;
65803;PMS5003;65658;63.740;34.316;2023-06-26T20:11:22;21;21;
65803;PMS5003;65658;63.740;34.316;2023-06-26T20:15:10;18;19;
65803;PMS5003;65658;63.740;34.316;2023-06-26T20:18:57;20;21;
65803;PMS5003;65658;63.740;34.316;2023-06-26T20:26:36;21;21;
65803;PMS5003;65658;63.740;34.316;2023-06-26T20:30:22;19;20;
65803;PMS5003;65658;63.740;34.316;2023-06-26T20:38:01;20;20;
65803;PMS5003;65658;63.740;34.316;2023-06-26T20:41:47;16;18;
65803;PMS5003;65658;63.740;34.316;2023-06-26T20:45:44;18;18;
65803;PMS5003;65658;63.740;34.316;2023-06-26T20:49:42;18;18;
65803;PMS5003;65658;63.740;34.316;2023-06-26T20:53:40;20;21;
65803;PMS5003;65658;63.740;34.316;2023-06-26T20:57:28;20;21;
65803;PMS5003;65658;63.740;34.316;2023-06-26T21:01:14;19;20;
65803;PMS5003;65658;63.740;34.316;2023-06-26T21:08:52;19;19;
65803;PMS5003;65658;63.740;34.316;2023-06-26T21:12:39;18;19;
65803;PMS5003;65658;63.740;34.316;2023-06-26T21:16:26;20;20;
65803;PMS5003;65658;63.740;34.316;2023-06-26T21:20:13;20;20;
65803;PMS5003;65658;63.740;34.316;2023-06-26T21:24:00;27;27;
65803;PMS5003;65658;63.740;34.316;2023-06-26T21:27:50;29;29;
65803;PMS5003;65658;63.740;34.316;2023-06-26T21:31:37;29;29;
65803;PMS5003;65658;63.740;34.316;2023-06-26T21:35:23;23;23;
65803;PMS5003;65658;63.740;34.316;2023-06-26T21:39:20;22;23;
65803;PMS5003;65658;63.740;34.316;2023-06-26T21:43:07;24;25;
65803;PMS5003;65658;63.740;34.316;2023-06-26T21:47:05;22;22;
65803;PMS5003;65658;63.740;34.316;2023-06-26T21:50:52;26;28;
65803;PMS5003;65658;63.740;34.316;2023-06-26T21:54:39;30;30;
65803;PMS5003;65658;63.740;34.316;2023-06-26T21:58:27;36;44;
65803;PMS5003;65658;63.740;34.316;2023-06-26T22:02:17;35;43;
65803;PMS5003;65658;63.740;34.316;2023-06-26T22:10:11;35;38;
65803;PMS5003;65658;63.740;34.316;2023-06-26T22:14:00;38;45;
65803;PMS5003;65658;63.740;34.316;2023-06-26T22:17:51;42;51;
65803;PMS5003;65658;63.740;34.316;2023-06-26T22:25:51;46;56;
65803;PMS5003;65658;63.740;34.316;2023-06-26T22:29:53;39;47;
65803;PMS5003;65658;63.740;34.316;2023-06-26T22:33:56;34;37;
65803;PMS5003;65658;63.740;34.316;2023-06-26T22:37:44;39;48;
65803;PMS5003;65658;63.740;34.316;2023-06-26T22:41:33;44;52;
65803;PMS5003;65658;63.740;34.316;2023-06-26T22:45:46;45;55;
65803;PMS5003;65658;63.740;34.316;2023-06-26T22:50:00;45;53;
65803;PMS5003;65658;63.740;34.316;2023-06-26T22:53:52;35;42;
65803;PMS5003;65658;63.740;34.316;2023-06-26T22:57:41;32;36;
65803;PMS5003;65658;63.740;34.316;2023-06-26T23:01:29;42;50;
65803;PMS5003;65658;63.740;34.316;2023-06-26T23:05:29;38;43;
65803;PMS5003;65658;63.740;34.316;2023-06-26T23:09:17;32;36;
65803;PMS5003;65658;63.740;34.316;2023-06-26T23:13:04;27;27;
65803;PMS5003;65658;63.740;34.316;2023-06-26T23:16:51;23;24;
65803;PMS5003;65658;63.740;34.316;2023-06-26T23:20:51;20;20;
65803;PMS5003;65658;63.740;34.316;2023-06-26T23:24:47;21;21;
65803;PMS5003;65658;63.740;34.316;2023-06-26T23:28:36;25;25;
65803;PMS5003;65658;63.740;34.316;2023-06-26T23:32:25;25;26;
65803;PMS5003;65658;63.740;34.316;2023-06-26T23:36:13;30;34;
65803;PMS5003;65658;63.740;34.316;2023-06-26T23:43:51;22;22;
65803;PMS5003;65658;63.740;34.316;2023-06-26T23:47:38;25;25;
65803;PMS5003;65658;63.740;34.316;2023-06-26T23:51:26;25;26;
65803;PMS5003;65658;63.740;34.316;2023-06-26T23:55:12;27;27;
65803;PMS5003;65658;63.740;34.316;2023-06-26T23:59:00;28;29;
